createdAt,value
2023-02-19T00:02:33.525Z,74.13
2023-02-19T00:05:35.886Z,74.31
2023-02-19T00:08:38.968Z,75.38
2023-02-19T00:11:41.911Z,75.34
2023-02-19T00:14:44.424Z,76.24
2023-02-19T00:17:46.730Z,76.81
2023-02-19T00:20:49.349Z,77.01
2023-02-19T00:24:03.983Z,76.96
2023-02-19T00:27:06.365Z,77.18
2023-02-19T00:30:09.838Z,77.58
2023-02-19T00:33:12.309Z,77.02
2023-02-19T00:36:15.399Z,77.75
2023-02-19T00:39:18.680Z,77.47
2023-02-19T00:42:21.225Z,78.78
2023-02-19T00:45:23.826Z,77.97
2023-02-19T00:48:26.528Z,78.27
2023-02-19T00:51:31.908Z,78.16
2023-02-19T00:54:34.345Z,78.55
2023-02-19T00:57:36.754Z,78.48
2023-02-19T01:00:39.277Z,79.14
2023-02-19T01:03:43.558Z,78.09
2023-02-19T01:06:46.098Z,78.43
2023-02-19T01:09:48.711Z,77.50
2023-02-19T01:12:51.161Z,77.93
2023-02-19T01:15:53.951Z,78.46
2023-02-19T01:18:57.554Z,78.49
2023-02-19T01:22:00.189Z,77.38
2023-02-19T01:25:02.607Z,77.08
2023-02-19T01:28:05.811Z,78.30
2023-02-19T01:31:13.542Z,78.25
2023-02-19T01:34:16.066Z,78.32
2023-02-19T01:37:18.417Z,78.03
2023-02-19T01:40:20.985Z,77.72
2023-02-19T01:43:24.173Z,77.77
2023-02-19T01:46:28.998Z,76.98
2023-02-19T01:49:39.910Z,78.45
2023-02-19T01:52:42.513Z,78.37
2023-02-19T01:55:48.239Z,78.42
2023-02-19T01:58:51.167Z,78.60
2023-02-19T02:01:53.572Z,78.43
2023-02-19T02:05:00.236Z,77.68
2023-02-19T02:08:22.116Z,77.93
2023-02-19T02:11:24.784Z,79.91
2023-02-19T02:14:30.690Z,79.83
2023-02-19T02:17:54.431Z,77.86
2023-02-19T02:21:21.313Z,80.03
2023-02-19T02:25:01.228Z,81.84
2023-02-19T02:28:36.598Z,81.52
2023-02-19T02:31:44.516Z,80.46
2023-02-19T02:34:59.341Z,81.80
2023-02-19T02:38:07.749Z,82.07
2023-02-19T02:41:11.889Z,79.72
2023-02-19T02:44:15.010Z,80.22
2023-02-19T02:47:37.753Z,81.09
2023-02-19T02:50:54.936Z,81.02
2023-02-19T02:54:19.880Z,79.48
2023-02-19T02:57:22.467Z,81.17
2023-02-19T03:00:51.074Z,83.04
2023-02-19T03:04:02.130Z,80.82
2023-02-19T03:07:09.646Z,81.60
2023-02-19T03:10:29.612Z,80.86
2023-02-19T03:13:55.011Z,81.19
2023-02-19T03:17:24.773Z,81.27
2023-02-19T03:20:30.161Z,81.32
2023-02-19T03:23:53.869Z,81.45
2023-02-19T03:26:58.566Z,81.20
2023-02-19T03:30:18.653Z,81.16
2023-02-19T03:33:26.493Z,80.80
2023-02-19T03:36:35.795Z,80.13
2023-02-19T03:39:44.518Z,79.68
2023-02-19T03:43:17.783Z,78.65
2023-02-19T03:46:42.228Z,78.10
2023-02-19T03:49:53.442Z,78.74
2023-02-19T03:53:11.757Z,78.40
2023-02-19T03:56:16.520Z,77.02
2023-02-19T03:59:24.098Z,76.22
2023-02-19T04:02:34.003Z,74.61
2023-02-19T04:05:44.551Z,73.25
2023-02-19T04:08:52.355Z,73.37
2023-02-19T04:11:55.390Z,73.25
2023-02-19T04:15:04.255Z,73.20
2023-02-19T04:18:11.432Z,72.93
2023-02-19T04:21:15.286Z,72.88
2023-02-19T04:24:36.878Z,72.97
2023-02-19T04:27:40.210Z,73.12
2023-02-19T04:30:43.754Z,73.69
2023-02-19T04:33:47.355Z,72.92
2023-02-19T04:36:49.667Z,73.04
2023-02-19T04:39:52.043Z,73.75
2023-02-19T04:42:54.574Z,73.65
2023-02-19T04:46:01.374Z,73.59
2023-02-19T04:49:04.318Z,73.96
2023-02-19T04:52:06.763Z,72.94
2023-02-19T04:55:09.365Z,72.88
2023-02-19T04:58:11.773Z,73.08
2023-02-19T05:01:14.751Z,73.21
2023-02-19T05:04:17.354Z,72.97
2023-02-19T05:07:19.798Z,72.02
2023-02-19T05:10:22.394Z,71.93
2023-02-19T05:13:25.059Z,72.82
2023-02-19T05:16:27.621Z,72.85
2023-02-19T05:19:30.087Z,73.60
2023-02-19T05:22:32.880Z,72.57
2023-02-19T05:25:35.193Z,73.51
2023-02-19T05:28:37.932Z,72.82
2023-02-19T05:31:40.432Z,72.45
2023-02-19T05:34:42.934Z,72.67
2023-02-19T05:37:45.337Z,72.50
2023-02-19T05:40:48.263Z,71.86
2023-02-19T05:43:51.357Z,72.11
2023-02-19T05:46:53.713Z,72.96
2023-02-19T05:49:56.110Z,74.10
2023-02-19T05:53:02.615Z,73.79
2023-02-19T05:56:05.758Z,73.28
2023-02-19T05:59:22.809Z,70.98
2023-02-19T06:02:25.381Z,71.89
2023-02-19T06:05:27.734Z,72.59
2023-02-19T06:08:30.194Z,74.16
2023-02-19T06:11:32.901Z,75.39
2023-02-19T06:14:35.294Z,74.66
2023-02-19T06:17:37.622Z,73.82
2023-02-19T06:20:40.044Z,74.02
2023-02-19T06:23:43.668Z,73.30
2023-02-19T06:26:46.580Z,73.58
2023-02-19T06:29:48.958Z,74.57
2023-02-19T06:32:54.048Z,74.42
2023-02-19T06:35:59.485Z,74.68
2023-02-19T06:39:03.922Z,75.14
2023-02-19T06:42:06.390Z,75.63
2023-02-19T06:45:09.039Z,75.03
2023-02-19T06:48:11.552Z,76.21
2023-02-19T06:51:18.682Z,74.25
2023-02-19T06:54:21.142Z,75.68
2023-02-19T06:57:23.506Z,75.11
2023-02-19T07:00:25.905Z,73.63
2023-02-19T07:03:28.338Z,74.69
2023-02-19T07:06:31.553Z,75.09
2023-02-19T07:09:34.233Z,73.55
2023-02-19T07:12:36.658Z,72.86
2023-02-19T07:15:39.100Z,70.90
2023-02-19T07:18:41.529Z,69.61
2023-02-19T07:21:44.070Z,68.77
2023-02-19T07:24:47.974Z,68.93
2023-02-19T07:27:50.364Z,68.58
2023-02-19T07:30:52.935Z,68.64
2023-02-19T07:33:55.960Z,68.25
2023-02-19T07:36:58.342Z,67.59
2023-02-19T07:40:00.794Z,66.94
2023-02-19T07:43:03.771Z,66.23
2023-02-19T07:46:10.022Z,66.03
2023-02-19T07:49:12.484Z,65.68
2023-02-19T07:52:14.954Z,65.10
2023-02-19T07:55:17.400Z,64.93
2023-02-19T07:58:19.846Z,65.18
2023-02-19T08:01:42.672Z,64.92
2023-02-19T08:04:47.413Z,64.33
2023-02-19T08:07:49.725Z,64.00
2023-02-19T08:11:24.108Z,63.16
2023-02-19T08:14:27.552Z,63.36
2023-02-19T08:17:31.231Z,63.26
2023-02-19T08:20:34.026Z,63.09
2023-02-19T08:23:36.655Z,61.90
2023-02-19T08:26:39.050Z,62.03
2023-02-19T08:29:41.845Z,60.99
2023-02-19T08:32:44.283Z,61.37
2023-02-19T08:35:47.080Z,60.56
2023-02-19T08:38:49.605Z,61.27
2023-02-19T08:41:58.057Z,61.95
2023-02-19T08:45:00.504Z,61.31
2023-02-19T08:48:02.958Z,61.45
2023-02-19T08:51:08.643Z,61.72
2023-02-19T08:54:11.161Z,62.58
2023-02-19T08:57:13.491Z,62.91
2023-02-19T09:00:16.835Z,61.97
2023-02-19T09:03:19.362Z,62.73
2023-02-19T09:06:21.893Z,61.26
2023-02-19T09:09:24.365Z,61.56
2023-02-19T09:12:26.840Z,60.70
2023-02-19T09:15:30.214Z,59.71
2023-02-19T09:18:32.818Z,58.23
2023-02-19T09:21:35.361Z,57.09
2023-02-19T09:24:37.796Z,57.47
2023-02-19T09:27:40.210Z,54.98
2023-02-19T09:30:42.666Z,50.24
2023-02-19T09:33:47.001Z,48.02
2023-02-19T09:36:50.250Z,48.72
2023-02-19T09:39:53.174Z,48.42
2023-02-19T09:42:55.698Z,51.18
2023-02-19T09:46:10.006Z,52.61
2023-02-19T09:49:36.851Z,52.97
2023-02-19T09:52:47.732Z,52.74
2023-02-19T09:55:51.485Z,54.30
2023-02-19T09:58:58.426Z,54.01
2023-02-19T10:02:21.883Z,54.11
2023-02-19T10:05:26.281Z,53.94
2023-02-19T10:08:33.329Z,54.53
2023-02-19T10:11:36.245Z,53.47
2023-02-19T10:15:09.266Z,52.45
2023-02-19T10:18:11.714Z,52.45
2023-02-19T10:21:28.067Z,51.34
2023-02-19T10:24:31.213Z,50.85
2023-02-19T10:27:33.569Z,51.77
2023-02-19T10:30:37.449Z,51.03
2023-02-19T10:33:57.573Z,49.41
2023-02-19T10:37:00.253Z,45.37
2023-02-19T10:40:02.979Z,43.15
2023-02-19T10:43:05.940Z,43.45
2023-02-19T10:46:24.282Z,47.56
2023-02-19T10:49:34.151Z,49.55
2023-02-19T10:52:36.638Z,50.17
2023-02-19T10:55:40.772Z,51.54
2023-02-19T10:58:45.007Z,52.69
2023-02-19T11:02:02.494Z,52.98
2023-02-19T11:05:17.074Z,52.11
2023-02-19T11:08:24.190Z,53.41
2023-02-19T11:11:26.495Z,54.01
2023-02-19T11:14:31.354Z,54.42
2023-02-19T11:17:33.929Z,54.00
2023-02-19T11:20:36.475Z,54.54
2023-02-19T11:23:46.140Z,54.40
2023-02-19T11:26:48.954Z,54.80
2023-02-19T11:29:51.542Z,54.76
2023-02-19T11:32:54.272Z,55.77
2023-02-19T11:36:14.902Z,54.57
2023-02-19T11:39:17.651Z,55.07
2023-02-19T11:42:42.529Z,55.71
2023-02-19T11:45:53.619Z,55.36
2023-02-19T11:49:41.390Z,56.70
2023-02-19T11:53:22.780Z,55.96
2023-02-19T11:56:34.003Z,54.56
2023-02-19T11:59:45.134Z,54.91
2023-02-19T12:03:18.685Z,53.55
2023-02-19T12:06:21.057Z,52.68
2023-02-19T12:10:07.197Z,53.10
2023-02-19T12:13:26.916Z,53.65
2023-02-19T12:16:58.138Z,53.44
2023-02-19T12:20:23.076Z,53.11
2023-02-19T12:23:32.429Z,49.16
2023-02-19T12:26:59.314Z,50.62
2023-02-19T12:30:28.135Z,49.77
2023-02-19T12:33:39.398Z,51.67
2023-02-19T12:36:51.004Z,51.21
2023-02-19T12:40:14.796Z,51.52
2023-02-19T12:43:21.253Z,51.89
2023-02-19T12:46:49.246Z,48.84
2023-02-19T12:50:08.137Z,46.80
2023-02-19T12:53:15.170Z,42.76
2023-02-19T12:56:24.217Z,44.65
2023-02-19T12:59:26.494Z,46.12
2023-02-19T13:02:48.538Z,46.92
2023-02-19T13:06:09.366Z,47.46
2023-02-19T13:09:19.517Z,47.44
2023-02-19T13:12:27.713Z,45.66
2023-02-19T13:15:45.242Z,42.92
2023-02-19T13:18:58.579Z,41.12
2023-02-19T13:22:53.150Z,39.83
2023-02-19T13:26:09.601Z,46.11
2023-02-19T13:29:50.038Z,48.49
2023-02-19T13:32:59.057Z,49.72
2023-02-19T13:36:12.378Z,49.19
2023-02-19T13:39:17.038Z,50.70
2023-02-19T13:42:39.957Z,49.36
2023-02-19T13:45:46.137Z,50.78
2023-02-19T13:48:48.851Z,50.46
2023-02-19T13:51:53.990Z,51.69
2023-02-19T13:55:42.366Z,48.91
2023-02-19T13:58:57.782Z,48.34
2023-02-19T14:02:02.873Z,48.79
2023-02-19T14:05:10.610Z,45.93
2023-02-19T14:08:13.172Z,46.45
2023-02-19T14:11:16.944Z,46.02
2023-02-19T14:14:35.233Z,47.97
2023-02-19T14:17:43.159Z,49.49
2023-02-19T14:20:45.997Z,50.69
2023-02-19T14:23:58.846Z,51.32
2023-02-19T14:27:01.511Z,53.39
2023-02-19T14:30:05.088Z,54.32
2023-02-19T14:33:11.348Z,55.00
2023-02-19T14:36:34.692Z,51.84
2023-02-19T14:39:39.089Z,50.47
2023-02-19T14:42:42.279Z,49.78
2023-02-19T14:45:52.643Z,49.58
2023-02-19T14:48:57.663Z,48.93
2023-02-19T14:52:04.421Z,48.31
2023-02-19T14:55:25.902Z,50.47
2023-02-19T14:58:32.099Z,51.31
2023-02-19T15:01:34.827Z,53.14
2023-02-19T15:04:37.984Z,53.40
2023-02-19T15:07:42.263Z,54.26
2023-02-19T15:10:45.106Z,54.95
2023-02-19T15:14:00.157Z,55.66
2023-02-19T15:17:05.302Z,56.54
2023-02-19T15:20:16.422Z,56.73
2023-02-19T15:23:24.019Z,58.13
2023-02-19T15:26:38.380Z,60.12
2023-02-19T15:29:50.871Z,61.05
2023-02-19T15:33:00.165Z,62.26
2023-02-19T15:36:07.142Z,62.46
2023-02-19T15:39:21.227Z,63.27
2023-02-19T15:42:28.455Z,63.10
2023-02-19T15:45:41.781Z,64.39
2023-02-19T15:48:54.482Z,64.08
2023-02-19T15:52:09.142Z,63.83
2023-02-19T15:55:33.518Z,65.15
2023-02-19T15:58:49.962Z,65.85
2023-02-19T16:01:53.054Z,65.66
2023-02-19T16:04:56.454Z,67.33
2023-02-19T16:08:19.304Z,66.16
2023-02-19T16:11:21.886Z,66.38
2023-02-19T16:14:34.929Z,66.63
2023-02-19T16:17:37.386Z,67.08
2023-02-19T16:20:40.399Z,68.43
2023-02-19T16:23:46.025Z,69.94
2023-02-19T16:26:48.474Z,70.97
2023-02-19T16:29:52.259Z,70.37
2023-02-19T16:33:32.944Z,71.45
2023-02-19T16:36:37.938Z,69.75
2023-02-19T16:39:40.395Z,69.83
2023-02-19T16:42:48.841Z,70.81
2023-02-19T16:45:51.278Z,70.65
2023-02-19T16:48:54.670Z,70.25
2023-02-19T16:51:59.646Z,69.88
2023-02-19T16:55:02.365Z,70.48
2023-02-19T16:58:04.762Z,71.56
2023-02-19T17:01:07.551Z,71.23
2023-02-19T17:04:13.237Z,70.35
2023-02-19T17:07:17.694Z,69.88
2023-02-19T17:10:23.494Z,69.02
2023-02-19T17:13:26.037Z,66.66
2023-02-19T17:16:40.393Z,66.40
2023-02-19T17:19:43.244Z,64.72
2023-02-19T17:22:45.832Z,63.71
2023-02-19T17:25:49.250Z,62.89
2023-02-19T17:28:51.898Z,63.18
2023-02-19T17:31:54.824Z,62.75
2023-02-19T17:34:57.253Z,63.33
2023-02-19T17:37:59.983Z,62.51
2023-02-19T17:41:04.199Z,63.14
2023-02-19T17:44:06.900Z,63.09
2023-02-19T17:47:09.537Z,62.63
2023-02-19T17:50:21.721Z,62.41
2023-02-19T17:53:25.439Z,62.46
2023-02-19T17:56:28.862Z,62.07
2023-02-19T17:59:32.007Z,63.69
2023-02-19T18:02:34.781Z,64.84
2023-02-19T18:05:37.284Z,69.10
2023-02-19T18:08:42.093Z,70.30
2023-02-19T18:11:46.375Z,72.35
2023-02-19T18:14:49.077Z,72.71
2023-02-19T18:17:51.518Z,73.93
2023-02-19T18:20:53.894Z,73.78
2023-02-19T18:23:57.783Z,75.40
2023-02-19T18:27:01.639Z,74.68
2023-02-19T18:30:05.028Z,73.69
2023-02-19T18:33:10.798Z,74.01
2023-02-19T18:36:13.594Z,71.62
2023-02-19T18:39:16.332Z,71.82
2023-02-19T18:42:19.200Z,71.67
2023-02-19T18:45:21.692Z,69.20
2023-02-19T18:48:24.537Z,70.87
2023-02-19T18:51:27.243Z,68.32
2023-02-19T18:54:31.487Z,69.63
2023-02-19T18:57:35.174Z,68.07
2023-02-19T19:00:38.306Z,69.07
2023-02-19T19:03:40.956Z,66.89
2023-02-19T19:06:43.687Z,67.80
2023-02-19T19:09:46.771Z,66.15
2023-02-19T19:12:50.443Z,65.42
2023-02-19T19:15:53.098Z,65.57
2023-02-19T19:18:57.124Z,65.01
2023-02-19T19:21:59.881Z,63.88
2023-02-19T19:25:02.808Z,65.01
2023-02-19T19:28:05.480Z,63.95
2023-02-19T19:31:08.184Z,63.56
2023-02-19T19:34:11.757Z,62.55
2023-02-19T19:37:14.507Z,61.70
2023-02-19T19:40:17.806Z,62.83
2023-02-19T19:43:20.196Z,61.83
2023-02-19T19:46:22.934Z,61.33
2023-02-19T19:49:25.588Z,61.57
2023-02-19T19:52:28.289Z,60.00
2023-02-19T19:55:30.974Z,60.34
2023-02-19T19:58:34.575Z,60.39
2023-02-19T20:01:37.889Z,57.94
2023-02-19T20:04:42.719Z,56.47
2023-02-19T20:07:45.910Z,58.70
2023-02-19T20:10:48.744Z,56.26
2023-02-19T20:13:51.745Z,56.58
2023-02-19T20:16:55.243Z,58.22
2023-02-19T20:19:57.628Z,56.12
2023-02-19T20:23:00.490Z,55.94
2023-02-19T20:26:07.599Z,55.49
2023-02-19T20:29:12.114Z,55.20
2023-02-19T20:32:19.880Z,56.03
2023-02-19T20:35:28.445Z,56.04
2023-02-19T20:38:31.076Z,55.56
2023-02-19T20:41:45.669Z,56.37
2023-02-19T20:44:48.117Z,57.22
2023-02-19T20:47:50.809Z,56.65
2023-02-19T20:50:59.526Z,56.51
2023-02-19T20:54:02.830Z,56.65
2023-02-19T20:57:05.774Z,56.11
2023-02-19T21:00:09.469Z,57.58
2023-02-19T21:03:12.494Z,58.16
2023-02-19T21:06:15.328Z,57.86
2023-02-19T21:09:21.854Z,58.66
2023-02-19T21:12:24.515Z,58.80
2023-02-19T21:15:27.335Z,59.13
2023-02-19T21:18:30.060Z,58.28
2023-02-19T21:21:34.495Z,58.55
2023-02-19T21:24:37.152Z,58.00
2023-02-19T21:27:40.775Z,58.84
2023-02-19T21:30:43.305Z,58.70
2023-02-19T21:33:45.790Z,58.18
2023-02-19T21:36:48.396Z,57.82
2023-02-19T21:39:51.149Z,58.30
2023-02-19T21:42:53.610Z,57.95
2023-02-19T21:45:56.908Z,56.77
2023-02-19T21:49:00.233Z,56.89
2023-02-19T21:52:02.925Z,55.78
2023-02-19T21:55:05.672Z,56.55
2023-02-19T21:58:08.354Z,54.77
2023-02-19T22:01:10.889Z,54.08
2023-02-19T22:04:15.886Z,54.54
2023-02-19T22:07:18.263Z,54.50
2023-02-19T22:10:26.589Z,53.17
2023-02-19T22:13:28.952Z,53.42
2023-02-19T22:16:32.632Z,52.78
2023-02-19T22:19:34.997Z,52.80
2023-02-19T22:22:37.651Z,53.41
2023-02-19T22:25:39.971Z,53.30
2023-02-19T22:28:42.384Z,53.41
2023-02-19T22:31:45.164Z,53.79
2023-02-19T22:34:47.675Z,54.19
2023-02-19T22:37:50.012Z,53.87
2023-02-19T22:40:52.430Z,53.76
2023-02-19T22:43:56.045Z,54.53
2023-02-19T22:46:58.399Z,54.03
2023-02-19T22:50:00.819Z,54.86
2023-02-19T22:53:03.213Z,54.52
2023-02-19T22:56:06.153Z,54.40
2023-02-19T22:59:08.536Z,54.62
2023-02-19T23:02:11.062Z,54.60
2023-02-19T23:05:13.646Z,55.10
2023-02-19T23:08:16.106Z,55.22
2023-02-19T23:11:27.770Z,55.92
2023-02-19T23:14:30.364Z,55.85
2023-02-19T23:17:33.247Z,56.10
2023-02-19T23:20:35.869Z,57.05
2023-02-19T23:23:42.153Z,56.50
2023-02-19T23:26:46.288Z,57.66
2023-02-19T23:29:48.757Z,57.25
2023-02-19T23:32:51.235Z,56.87
2023-02-19T23:35:53.746Z,57.36
2023-02-19T23:38:56.455Z,57.72
2023-02-19T23:41:58.928Z,56.81
2023-02-19T23:45:01.612Z,56.60
2023-02-19T23:48:04.090Z,58.15
2023-02-19T23:51:06.704Z,58.54
2023-02-19T23:54:09.413Z,58.61
2023-02-19T23:57:12.840Z,58.53
